sensor_id;sensor_type;location;lat;lon;timestamp;temperature;humidity
12013;DHT22;6065;48.138;16.402;2023-02-28T00:01:58;2.20;99.80
12013;DHT22;6065;48.138;16.402;2023-02-28T00:04:25;2.20;99.90
12013;DHT22;6065;48.138;16.402;2023-02-28T00:06:51;2.20;99.90
12013;DHT22;6065;48.138;16.402;2023-02-28T00:09:18;2.20;99.80
12013;DHT22;6065;48.138;16.402;2023-02-28T00:11:45;2.20;99.70
12013;DHT22;6065;48.138;16.402;2023-02-28T00:14:11;2.10;99.90
12013;DHT22;6065;48.138;16.402;2023-02-28T00:16:39;2.10;99.90
12013;DHT22;6065;48.138;16.402;2023-02-28T00:19:06;2.10;99.90
12013;DHT22;6065;48.138;16.402;2023-02-28T00:21:33;2.10;99.90
12013;DHT22;6065;48.138;16.402;2023-02-28T00:24:00;2.10;99.90
12013;DHT22;6065;48.138;16.402;2023-02-28T00:26:27;2.00;99.90
12013;DHT22;6065;48.138;16.402;2023-02-28T00:28:54;2.00;99.90
12013;DHT22;6065;48.138;16.402;2023-02-28T00:31:20;2.00;99.90
12013;DHT22;6065;48.138;16.402;2023-02-28T00:33:48;2.00;99.90
12013;DHT22;6065;48.138;16.402;2023-02-28T00:36:17;1.90;99.90
12013;DHT22;6065;48.138;16.402;2023-02-28T00:38:43;1.90;99.90
12013;DHT22;6065;48.138;16.402;2023-02-28T00:41:10;1.90;99.90
12013;DHT22;6065;48.138;16.402;2023-02-28T00:43:37;1.90;99.90
12013;DHT22;6065;48.138;16.402;2023-02-28T00:46:04;2.00;99.90
12013;DHT22;6065;48.138;16.402;2023-02-28T00:48:31;2.00;99.90
12013;DHT22;6065;48.138;16.402;2023-02-28T00:50:59;1.90;99.90
12013;DHT22;6065;48.138;16.402;2023-02-28T00:53:26;2.00;99.90
12013;DHT22;6065;48.138;16.402;2023-02-28T00:55:53;2.00;99.90
12013;DHT22;6065;48.138;16.402;2023-02-28T00:58:20;2.00;99.90
12013;DHT22;6065;48.138;16.402;2023-02-28T01:00:46;1.90;99.90
12013;DHT22;6065;48.138;16.402;2023-02-28T01:03:14;1.90;99.90
12013;DHT22;6065;48.138;16.402;2023-02-28T01:05:41;1.90;99.90
12013;DHT22;6065;48.138;16.402;2023-02-28T01:08:09;1.90;99.90
12013;DHT22;6065;48.138;16.402;2023-02-28T01:10:35;1.90;99.90
12013;DHT22;6065;48.138;16.402;2023-02-28T01:13:03;1.90;99.90
12013;DHT22;6065;48.138;16.402;2023-02-28T01:15:30;1.90;99.90
12013;DHT22;6065;48.138;16.402;2023-02-28T01:17:57;1.90;99.90
12013;DHT22;6065;48.138;16.402;2023-02-28T01:20:24;1.90;99.90
12013;DHT22;6065;48.138;16.402;2023-02-28T01:22:50;1.90;99.90
12013;DHT22;6065;48.138;16.402;2023-02-28T01:25:18;2.00;99.90
12013;DHT22;6065;48.138;16.402;2023-02-28T01:27:45;2.00;99.90
12013;DHT22;6065;48.138;16.402;2023-02-28T01:30:12;1.90;99.90
12013;DHT22;6065;48.138;16.402;2023-02-28T01:32:39;1.90;99.90
12013;DHT22;6065;48.138;16.402;2023-02-28T01:35:06;1.90;99.90
12013;DHT22;6065;48.138;16.402;2023-02-28T01:37:33;1.80;99.90
12013;DHT22;6065;48.138;16.402;2023-02-28T01:40:00;1.90;99.90
12013;DHT22;6065;48.138;16.402;2023-02-28T01:42:28;1.90;99.90
12013;DHT22;6065;48.138;16.402;2023-02-28T01:44:55;1.80;99.90
12013;DHT22;6065;48.138;16.402;2023-02-28T01:47:23;1.80;99.90
12013;DHT22;6065;48.138;16.402;2023-02-28T01:49:51;1.80;99.90
12013;DHT22;6065;48.138;16.402;2023-02-28T01:52:18;1.70;99.90
12013;DHT22;6065;48.138;16.402;2023-02-28T01:54:47;1.80;99.90
12013;DHT22;6065;48.138;16.402;2023-02-28T01:57:17;1.80;99.90
12013;DHT22;6065;48.138;16.402;2023-02-28T01:59:48;1.80;99.90
12013;DHT22;6065;48.138;16.402;2023-02-28T02:02:17;1.70;99.90
12013;DHT22;6065;48.138;16.402;2023-02-28T02:04:46;1.70;99.90
12013;DHT22;6065;48.138;16.402;2023-02-28T02:07:16;1.60;99.90
12013;DHT22;6065;48.138;16.402;2023-02-28T02:09:43;1.60;99.90
12013;DHT22;6065;48.138;16.402;2023-02-28T02:12:11;1.70;99.90
12013;DHT22;6065;48.138;16.402;2023-02-28T02:14:44;1.60;99.90
12013;DHT22;6065;48.138;16.402;2023-02-28T02:17:20;1.80;99.90
12013;DHT22;6065;48.138;16.402;2023-02-28T02:22:52;1.60;99.90
12013;DHT22;6065;48.138;16.402;2023-02-28T02:25:26;1.60;99.90
12013;DHT22;6065;48.138;16.402;2023-02-28T02:30:49;1.50;99.90
12013;DHT22;6065;48.138;16.402;2023-02-28T02:36:06;1.50;99.90
12013;DHT22;6065;48.138;16.402;2023-02-28T02:38:34;1.50;99.90
12013;DHT22;6065;48.138;16.402;2023-02-28T02:41:04;1.50;99.90
12013;DHT22;6065;48.138;16.402;2023-02-28T02:43:35;1.50;99.90
12013;DHT22;6065;48.138;16.402;2023-02-28T02:46:04;1.60;99.90
12013;DHT22;6065;48.138;16.402;2023-02-28T02:48:33;1.50;99.90
12013;DHT22;6065;48.138;16.402;2023-02-28T02:51:02;1.50;99.90
12013;DHT22;6065;48.138;16.402;2023-02-28T02:53:32;1.50;99.90
12013;DHT22;6065;48.138;16.402;2023-02-28T02:55:59;1.50;99.90
12013;DHT22;6065;48.138;16.402;2023-02-28T02:58:28;1.50;99.90
12013;DHT22;6065;48.138;16.402;2023-02-28T03:00:57;1.50;99.90
12013;DHT22;6065;48.138;16.402;2023-02-28T03:03:25;1.50;99.90
12013;DHT22;6065;48.138;16.402;2023-02-28T03:05:55;1.40;99.90
12013;DHT22;6065;48.138;16.402;2023-02-28T03:08:22;1.50;99.90
12013;DHT22;6065;48.138;16.402;2023-02-28T03:10:50;1.40;99.90
12013;DHT22;6065;48.138;16.402;2023-02-28T03:16:10;1.40;99.90
12013;DHT22;6065;48.138;16.402;2023-02-28T03:18:40;1.30;99.90
12013;DHT22;6065;48.138;16.402;2023-02-28T03:21:12;1.40;99.90
12013;DHT22;6065;48.138;16.402;2023-02-28T03:23:44;1.40;99.90
12013;DHT22;6065;48.138;16.402;2023-02-28T03:26:13;1.40;99.90
12013;DHT22;6065;48.138;16.402;2023-02-28T03:28:43;1.40;99.90
12013;DHT22;6065;48.138;16.402;2023-02-28T03:31:13;1.40;99.90
12013;DHT22;6065;48.138;16.402;2023-02-28T03:33:44;1.40;99.90
12013;DHT22;6065;48.138;16.402;2023-02-28T03:36:21;1.40;99.90
12013;DHT22;6065;48.138;16.402;2023-02-28T03:38:49;1.40;99.90
12013;DHT22;6065;48.138;16.402;2023-02-28T03:41:20;1.40;99.90
12013;DHT22;6065;48.138;16.402;2023-02-28T03:43:55;1.40;99.90
12013;DHT22;6065;48.138;16.402;2023-02-28T03:46:23;1.30;99.90
12013;DHT22;6065;48.138;16.402;2023-02-28T03:48:51;1.30;99.90
12013;DHT22;6065;48.138;16.402;2023-02-28T03:51:21;1.30;99.90
12013;DHT22;6065;48.138;16.402;2023-02-28T03:53:50;1.20;99.90
12013;DHT22;6065;48.138;16.402;2023-02-28T03:56:18;1.20;99.90
12013;DHT22;6065;48.138;16.402;2023-02-28T03:58:49;1.20;99.90
12013;DHT22;6065;48.138;16.402;2023-02-28T04:01:18;1.20;99.90
12013;DHT22;6065;48.138;16.402;2023-02-28T04:03:46;1.20;99.90
12013;DHT22;6065;48.138;16.402;2023-02-28T04:06:14;1.20;99.90
12013;DHT22;6065;48.138;16.402;2023-02-28T04:08:41;1.20;99.90
12013;DHT22;6065;48.138;16.402;2023-02-28T04:11:11;1.20;99.90
12013;DHT22;6065;48.138;16.402;2023-02-28T04:13:41;1.20;99.90
12013;DHT22;6065;48.138;16.402;2023-02-28T04:16:09;1.20;99.90
12013;DHT22;6065;48.138;16.402;2023-02-28T04:18:37;1.10;99.90
12013;DHT22;6065;48.138;16.402;2023-02-28T04:21:04;1.10;99.90
12013;DHT22;6065;48.138;16.402;2023-02-28T04:23:31;1.10;99.90
12013;DHT22;6065;48.138;16.402;2023-02-28T04:25:58;1.10;99.90
12013;DHT22;6065;48.138;16.402;2023-02-28T04:28:24;1.10;99.90
12013;DHT22;6065;48.138;16.402;2023-02-28T04:30:54;1.10;99.90
12013;DHT22;6065;48.138;16.402;2023-02-28T04:33:22;1.10;99.90
12013;DHT22;6065;48.138;16.402;2023-02-28T04:35:52;1.00;99.90
12013;DHT22;6065;48.138;16.402;2023-02-28T04:38:23;1.00;99.90
12013;DHT22;6065;48.138;16.402;2023-02-28T04:40:50;1.00;99.90
12013;DHT22;6065;48.138;16.402;2023-02-28T04:43:17;0.90;99.90
12013;DHT22;6065;48.138;16.402;2023-02-28T04:45:43;0.90;99.90
12013;DHT22;6065;48.138;16.402;2023-02-28T04:48:10;0.90;99.90
12013;DHT22;6065;48.138;16.402;2023-02-28T04:50:38;0.90;99.90
12013;DHT22;6065;48.138;16.402;2023-02-28T04:53:05;0.90;99.90
12013;DHT22;6065;48.138;16.402;2023-02-28T04:55:32;0.90;99.90
12013;DHT22;6065;48.138;16.402;2023-02-28T04:57:59;0.90;99.90
12013;DHT22;6065;48.138;16.402;2023-02-28T05:00:26;0.90;99.90
12013;DHT22;6065;48.138;16.402;2023-02-28T05:02:53;0.90;99.90
12013;DHT22;6065;48.138;16.402;2023-02-28T05:05:19;0.90;99.90
12013;DHT22;6065;48.138;16.402;2023-02-28T05:07:47;0.90;99.90
12013;DHT22;6065;48.138;16.402;2023-02-28T05:10:14;0.90;99.90
12013;DHT22;6065;48.138;16.402;2023-02-28T05:12:41;0.90;99.90
12013;DHT22;6065;48.138;16.402;2023-02-28T05:15:08;1.00;99.90
12013;DHT22;6065;48.138;16.402;2023-02-28T05:17:38;0.90;99.90
12013;DHT22;6065;48.138;16.402;2023-02-28T05:20:05;0.90;99.90
12013;DHT22;6065;48.138;16.402;2023-02-28T05:22:32;0.90;99.90
12013;DHT22;6065;48.138;16.402;2023-02-28T05:25:00;0.90;99.90
12013;DHT22;6065;48.138;16.402;2023-02-28T05:27:27;0.90;99.90
12013;DHT22;6065;48.138;16.402;2023-02-28T05:29:54;0.90;99.90
12013;DHT22;6065;48.138;16.402;2023-02-28T05:32:20;0.90;99.90
12013;DHT22;6065;48.138;16.402;2023-02-28T05:34:47;0.90;99.90
12013;DHT22;6065;48.138;16.402;2023-02-28T05:37:14;0.90;99.90
12013;DHT22;6065;48.138;16.402;2023-02-28T05:39:41;0.90;99.90
12013;DHT22;6065;48.138;16.402;2023-02-28T05:42:09;0.90;99.90
12013;DHT22;6065;48.138;16.402;2023-02-28T05:44:36;0.90;99.90
12013;DHT22;6065;48.138;16.402;2023-02-28T05:47:03;0.80;99.90
12013;DHT22;6065;48.138;16.402;2023-02-28T05:49:30;0.80;99.90
12013;DHT22;6065;48.138;16.402;2023-02-28T05:51:56;0.80;99.90
12013;DHT22;6065;48.138;16.402;2023-02-28T05:54:23;0.80;99.90
12013;DHT22;6065;48.138;16.402;2023-02-28T05:56:50;0.80;99.90
12013;DHT22;6065;48.138;16.402;2023-02-28T05:59:18;0.70;99.90
12013;DHT22;6065;48.138;16.402;2023-02-28T06:01:45;0.80;99.90
12013;DHT22;6065;48.138;16.402;2023-02-28T06:04:14;0.80;99.90
12013;DHT22;6065;48.138;16.402;2023-02-28T06:06:43;0.80;99.90
12013;DHT22;6065;48.138;16.402;2023-02-28T06:09:10;0.80;99.90
12013;DHT22;6065;48.138;16.402;2023-02-28T06:11:36;0.80;99.90
12013;DHT22;6065;48.138;16.402;2023-02-28T06:14:03;0.70;99.90
12013;DHT22;6065;48.138;16.402;2023-02-28T06:16:32;0.70;99.90
12013;DHT22;6065;48.138;16.402;2023-02-28T06:19:00;0.80;99.90
12013;DHT22;6065;48.138;16.402;2023-02-28T06:21:27;0.70;99.90
12013;DHT22;6065;48.138;16.402;2023-02-28T06:23:54;0.70;99.90
12013;DHT22;6065;48.138;16.402;2023-02-28T06:26:21;0.80;99.90
12013;DHT22;6065;48.138;16.402;2023-02-28T06:28:47;0.80;99.90
12013;DHT22;6065;48.138;16.402;2023-02-28T06:31:15;0.90;99.90
12013;DHT22;6065;48.138;16.402;2023-02-28T06:33:44;0.90;99.90
12013;DHT22;6065;48.138;16.402;2023-02-28T06:36:11;1.00;99.90
12013;DHT22;6065;48.138;16.402;2023-02-28T06:38:38;1.00;99.90
12013;DHT22;6065;48.138;16.402;2023-02-28T06:41:06;1.00;99.90
12013;DHT22;6065;48.138;16.402;2023-02-28T06:43:34;1.00;99.90
12013;DHT22;6065;48.138;16.402;2023-02-28T06:46:02;1.10;99.90
12013;DHT22;6065;48.138;16.402;2023-02-28T06:48:29;1.10;99.90
12013;DHT22;6065;48.138;16.402;2023-02-28T06:51:02;1.10;99.90
12013;DHT22;6065;48.138;16.402;2023-02-28T06:53:29;1.10;99.90
12013;DHT22;6065;48.138;16.402;2023-02-28T06:55:56;1.10;99.90
12013;DHT22;6065;48.138;16.402;2023-02-28T06:58:22;1.20;99.90
12013;DHT22;6065;48.138;16.402;2023-02-28T07:00:50;1.20;99.90
12013;DHT22;6065;48.138;16.402;2023-02-28T07:03:17;1.20;99.90
12013;DHT22;6065;48.138;16.402;2023-02-28T07:05:44;1.20;99.90
12013;DHT22;6065;48.138;16.402;2023-02-28T07:08:12;1.20;99.90
12013;DHT22;6065;48.138;16.402;2023-02-28T07:10:39;1.20;99.90
12013;DHT22;6065;48.138;16.402;2023-02-28T07:13:07;1.20;99.90
12013;DHT22;6065;48.138;16.402;2023-02-28T07:15:34;1.30;99.90
12013;DHT22;6065;48.138;16.402;2023-02-28T07:18:00;1.20;99.90
12013;DHT22;6065;48.138;16.402;2023-02-28T07:20:27;1.30;99.90
12013;DHT22;6065;48.138;16.402;2023-02-28T07:22:54;1.20;99.90
12013;DHT22;6065;48.138;16.402;2023-02-28T07:25:23;1.20;99.90
12013;DHT22;6065;48.138;16.402;2023-02-28T07:27:49;1.30;99.90
12013;DHT22;6065;48.138;16.402;2023-02-28T07:30:16;1.30;99.90
12013;DHT22;6065;48.138;16.402;2023-02-28T07:32:43;1.30;99.90
12013;DHT22;6065;48.138;16.402;2023-02-28T07:35:10;1.40;99.90
12013;DHT22;6065;48.138;16.402;2023-02-28T07:37:37;1.50;99.90
12013;DHT22;6065;48.138;16.402;2023-02-28T07:40:04;1.50;99.90
12013;DHT22;6065;48.138;16.402;2023-02-28T07:42:35;1.50;99.90
12013;DHT22;6065;48.138;16.402;2023-02-28T07:45:01;1.50;99.90
12013;DHT22;6065;48.138;16.402;2023-02-28T07:47:28;1.60;99.90
12013;DHT22;6065;48.138;16.402;2023-02-28T07:49:55;1.60;99.90
12013;DHT22;6065;48.138;16.402;2023-02-28T07:52:22;1.60;99.90
12013;DHT22;6065;48.138;16.402;2023-02-28T07:54:49;1.60;99.90
12013;DHT22;6065;48.138;16.402;2023-02-28T07:57:16;1.60;99.90
12013;DHT22;6065;48.138;16.402;2023-02-28T07:59:44;1.60;99.90
12013;DHT22;6065;48.138;16.402;2023-02-28T08:02:11;1.60;99.90
12013;DHT22;6065;48.138;16.402;2023-02-28T08:04:38;1.70;99.90
12013;DHT22;6065;48.138;16.402;2023-02-28T08:07:05;1.70;99.90
12013;DHT22;6065;48.138;16.402;2023-02-28T08:09:32;1.80;99.90
12013;DHT22;6065;48.138;16.402;2023-02-28T08:11:59;1.80;99.90
12013;DHT22;6065;48.138;16.402;2023-02-28T08:14:26;1.90;99.90
12013;DHT22;6065;48.138;16.402;2023-02-28T08:16:54;2.00;99.90
12013;DHT22;6065;48.138;16.402;2023-02-28T08:19:20;2.00;99.90
12013;DHT22;6065;48.138;16.402;2023-02-28T08:21:47;2.10;99.90
12013;DHT22;6065;48.138;16.402;2023-02-28T08:24:14;2.10;99.90
12013;DHT22;6065;48.138;16.402;2023-02-28T08:26:40;2.20;99.90
12013;DHT22;6065;48.138;16.402;2023-02-28T08:29:07;2.20;99.90
12013;DHT22;6065;48.138;16.402;2023-02-28T08:31:34;2.20;99.90
12013;DHT22;6065;48.138;16.402;2023-02-28T08:34:05;2.30;99.90
12013;DHT22;6065;48.138;16.402;2023-02-28T08:36:32;2.40;99.90
12013;DHT22;6065;48.138;16.402;2023-02-28T08:38:59;2.40;99.90
12013;DHT22;6065;48.138;16.402;2023-02-28T08:41:25;2.50;99.90
12013;DHT22;6065;48.138;16.402;2023-02-28T08:43:52;2.60;99.90
12013;DHT22;6065;48.138;16.402;2023-02-28T08:46:19;2.60;99.90
12013;DHT22;6065;48.138;16.402;2023-02-28T08:48:46;2.60;99.90
12013;DHT22;6065;48.138;16.402;2023-02-28T08:51:15;2.70;99.90
12013;DHT22;6065;48.138;16.402;2023-02-28T08:53:44;2.80;99.90
12013;DHT22;6065;48.138;16.402;2023-02-28T08:56:12;2.80;99.90
12013;DHT22;6065;48.138;16.402;2023-02-28T08:58:39;2.80;99.90
12013;DHT22;6065;48.138;16.402;2023-02-28T09:01:09;2.80;99.90
12013;DHT22;6065;48.138;16.402;2023-02-28T09:03:37;2.80;99.90
12013;DHT22;6065;48.138;16.402;2023-02-28T09:06:04;2.90;99.90
12013;DHT22;6065;48.138;16.402;2023-02-28T09:08:32;2.90;99.90
12013;DHT22;6065;48.138;16.402;2023-02-28T09:10:59;3.00;99.90
12013;DHT22;6065;48.138;16.402;2023-02-28T09:13:27;3.00;99.90
12013;DHT22;6065;48.138;16.402;2023-02-28T09:15:54;3.00;99.90
12013;DHT22;6065;48.138;16.402;2023-02-28T09:18:20;3.00;99.90
12013;DHT22;6065;48.138;16.402;2023-02-28T09:20:47;3.00;99.90
12013;DHT22;6065;48.138;16.402;2023-02-28T09:23:14;3.00;99.90
12013;DHT22;6065;48.138;16.402;2023-02-28T09:25:46;3.00;99.90
12013;DHT22;6065;48.138;16.402;2023-02-28T09:28:13;2.90;99.90
12013;DHT22;6065;48.138;16.402;2023-02-28T09:30:41;2.90;99.90
12013;DHT22;6065;48.138;16.402;2023-02-28T09:33:07;2.90;99.90
12013;DHT22;6065;48.138;16.402;2023-02-28T09:35:34;2.90;99.90
12013;DHT22;6065;48.138;16.402;2023-02-28T09:38:02;2.90;99.90
12013;DHT22;6065;48.138;16.402;2023-02-28T09:40:29;2.90;99.90
12013;DHT22;6065;48.138;16.402;2023-02-28T09:42:58;2.90;99.90
12013;DHT22;6065;48.138;16.402;2023-02-28T09:45:27;2.90;99.90
12013;DHT22;6065;48.138;16.402;2023-02-28T09:47:56;3.00;99.90
12013;DHT22;6065;48.138;16.402;2023-02-28T09:50:29;3.00;99.90
12013;DHT22;6065;48.138;16.402;2023-02-28T09:52:58;3.00;99.90
12013;DHT22;6065;48.138;16.402;2023-02-28T09:55:26;3.10;99.90
12013;DHT22;6065;48.138;16.402;2023-02-28T09:57:54;3.20;99.90
12013;DHT22;6065;48.138;16.402;2023-02-28T10:00:24;3.30;99.90
12013;DHT22;6065;48.138;16.402;2023-02-28T10:02:56;3.40;99.90
12013;DHT22;6065;48.138;16.402;2023-02-28T10:05:29;3.50;99.90
12013;DHT22;6065;48.138;16.402;2023-02-28T10:08:00;3.50;99.90
12013;DHT22;6065;48.138;16.402;2023-02-28T10:10:32;3.70;99.90
12013;DHT22;6065;48.138;16.402;2023-02-28T10:13:02;3.80;99.90
12013;DHT22;6065;48.138;16.402;2023-02-28T10:15:32;3.90;99.90
12013;DHT22;6065;48.138;16.402;2023-02-28T10:18:01;4.00;99.90
12013;DHT22;6065;48.138;16.402;2023-02-28T10:20:28;4.10;99.90
12013;DHT22;6065;48.138;16.402;2023-02-28T10:23:00;4.10;99.90
12013;DHT22;6065;48.138;16.402;2023-02-28T10:25:33;4.20;99.90
12013;DHT22;6065;48.138;16.402;2023-02-28T10:28:04;4.40;99.90
12013;DHT22;6065;48.138;16.402;2023-02-28T10:30:33;4.40;99.90
12013;DHT22;6065;48.138;16.402;2023-02-28T10:33:00;4.50;99.90
12013;DHT22;6065;48.138;16.402;2023-02-28T10:35:27;4.60;99.90
12013;DHT22;6065;48.138;16.402;2023-02-28T10:37:54;4.80;99.90
12013;DHT22;6065;48.138;16.402;2023-02-28T10:40:26;4.80;99.90
12013;DHT22;6065;48.138;16.402;2023-02-28T10:42:56;4.90;99.90
12013;DHT22;6065;48.138;16.402;2023-02-28T10:45:23;5.00;99.90
12013;DHT22;6065;48.138;16.402;2023-02-28T10:47:53;5.10;99.90
12013;DHT22;6065;48.138;16.402;2023-02-28T10:50:28;5.10;99.90
12013;DHT22;6065;48.138;16.402;2023-02-28T10:52:55;5.10;99.90
12013;DHT22;6065;48.138;16.402;2023-02-28T10:55:30;5.10;99.90
12013;DHT22;6065;48.138;16.402;2023-02-28T10:57:57;5.20;99.90
12013;DHT22;6065;48.138;16.402;2023-02-28T11:00:24;5.20;99.90
12013;DHT22;6065;48.138;16.402;2023-02-28T11:02:53;5.20;99.90
12013;DHT22;6065;48.138;16.402;2023-02-28T11:05:26;5.30;99.90
12013;DHT22;6065;48.138;16.402;2023-02-28T11:07:53;5.30;99.90
12013;DHT22;6065;48.138;16.402;2023-02-28T11:10:21;5.30;99.90
12013;DHT22;6065;48.138;16.402;2023-02-28T11:12:53;5.30;99.90
12013;DHT22;6065;48.138;16.402;2023-02-28T11:15:21;5.40;99.90
12013;DHT22;6065;48.138;16.402;2023-02-28T11:17:54;5.50;99.90
12013;DHT22;6065;48.138;16.402;2023-02-28T11:20:22;5.60;99.90
12013;DHT22;6065;48.138;16.402;2023-02-28T11:22:49;5.60;99.90
12013;DHT22;6065;48.138;16.402;2023-02-28T11:25:19;5.70;99.90
12013;DHT22;6065;48.138;16.402;2023-02-28T11:27:48;5.70;99.90
12013;DHT22;6065;48.138;16.402;2023-02-28T11:30:25;5.80;99.90
12013;DHT22;6065;48.138;16.402;2023-02-28T11:32:52;5.80;99.90
12013;DHT22;6065;48.138;16.402;2023-02-28T11:35:21;5.70;99.90
12013;DHT22;6065;48.138;16.402;2023-02-28T11:37:49;5.70;99.80
12013;DHT22;6065;48.138;16.402;2023-02-28T11:40:18;5.70;99.90
12013;DHT22;6065;48.138;16.402;2023-02-28T11:42:48;5.70;99.50
12013;DHT22;6065;48.138;16.402;2023-02-28T11:45:19;5.70;99.40
12013;DHT22;6065;48.138;16.402;2023-02-28T11:47:48;5.80;99.40
12013;DHT22;6065;48.138;16.402;2023-02-28T11:50:25;6.00;99.30
12013;DHT22;6065;48.138;16.402;2023-02-28T11:52:54;6.10;99.00
12013;DHT22;6065;48.138;16.402;2023-02-28T11:55:23;6.30;99.00
12013;DHT22;6065;48.138;16.402;2023-02-28T11:57:59;6.40;98.80
12013;DHT22;6065;48.138;16.402;2023-02-28T12:00:31;6.50;98.60
12013;DHT22;6065;48.138;16.402;2023-02-28T12:03:01;6.60;98.70
12013;DHT22;6065;48.138;16.402;2023-02-28T12:05:34;6.70;97.80
12013;DHT22;6065;48.138;16.402;2023-02-28T12:08:04;6.60;97.60
12013;DHT22;6065;48.138;16.402;2023-02-28T12:10:34;6.50;97.40
12013;DHT22;6065;48.138;16.402;2023-02-28T12:13:09;6.30;97.30
12013;DHT22;6065;48.138;16.402;2023-02-28T12:15:45;6.20;97.40
12013;DHT22;6065;48.138;16.402;2023-02-28T12:18:17;6.20;97.50
12013;DHT22;6065;48.138;16.402;2023-02-28T12:20:52;6.20;97.40
12013;DHT22;6065;48.138;16.402;2023-02-28T12:23:33;6.30;98.00
12013;DHT22;6065;48.138;16.402;2023-02-28T12:26:07;6.40;97.10
12013;DHT22;6065;48.138;16.402;2023-02-28T12:28:38;6.40;97.50
12013;DHT22;6065;48.138;16.402;2023-02-28T12:31:08;6.50;97.30
12013;DHT22;6065;48.138;16.402;2023-02-28T12:33:36;6.50;97.20
12013;DHT22;6065;48.138;16.402;2023-02-28T12:36:08;6.50;96.90
12013;DHT22;6065;48.138;16.402;2023-02-28T12:38:36;6.50;96.80
12013;DHT22;6065;48.138;16.402;2023-02-28T12:41:04;6.50;96.90
12013;DHT22;6065;48.138;16.402;2023-02-28T12:43:33;6.40;97.10
12013;DHT22;6065;48.138;16.402;2023-02-28T12:46:02;6.50;96.40
12013;DHT22;6065;48.138;16.402;2023-02-28T12:48:33;6.50;95.90
12013;DHT22;6065;48.138;16.402;2023-02-28T12:51:04;6.50;96.20
12013;DHT22;6065;48.138;16.402;2023-02-28T12:53:35;6.50;96.50
12013;DHT22;6065;48.138;16.402;2023-02-28T12:56:08;6.50;96.10
12013;DHT22;6065;48.138;16.402;2023-02-28T12:58:38;6.40;95.90
12013;DHT22;6065;48.138;16.402;2023-02-28T13:01:26;6.40;96.10
12013;DHT22;6065;48.138;16.402;2023-02-28T13:06:54;6.30;95.80
12013;DHT22;6065;48.138;16.402;2023-02-28T13:09:26;6.30;96.00
12013;DHT22;6065;48.138;16.402;2023-02-28T13:11:54;6.30;96.00
12013;DHT22;6065;48.138;16.402;2023-02-28T13:14:24;6.30;95.80
12013;DHT22;6065;48.138;16.402;2023-02-28T13:16:54;6.30;96.10
12013;DHT22;6065;48.138;16.402;2023-02-28T13:19:22;6.30;95.80
12013;DHT22;6065;48.138;16.402;2023-02-28T13:21:50;6.30;95.60
12013;DHT22;6065;48.138;16.402;2023-02-28T13:30:00;6.20;95.90
12013;DHT22;6065;48.138;16.402;2023-02-28T13:38:01;6.10;95.50
12013;DHT22;6065;48.138;16.402;2023-02-28T13:40:35;6.10;96.10
12013;DHT22;6065;48.138;16.402;2023-02-28T13:43:05;6.10;95.80
12013;DHT22;6065;48.138;16.402;2023-02-28T13:45:35;6.10;95.70
12013;DHT22;6065;48.138;16.402;2023-02-28T13:48:04;6.10;96.00
12013;DHT22;6065;48.138;16.402;2023-02-28T13:50:34;6.10;95.60
12013;DHT22;6065;48.138;16.402;2023-02-28T13:53:26;6.10;95.60
12013;DHT22;6065;48.138;16.402;2023-02-28T13:55:57;6.00;95.70
12013;DHT22;6065;48.138;16.402;2023-02-28T13:58:32;6.10;95.70
12013;DHT22;6065;48.138;16.402;2023-02-28T14:01:07;6.10;95.90
12013;DHT22;6065;48.138;16.402;2023-02-28T14:03:38;6.10;96.10
12013;DHT22;6065;48.138;16.402;2023-02-28T14:06:09;6.10;96.10
12013;DHT22;6065;48.138;16.402;2023-02-28T14:08:37;6.20;95.90
12013;DHT22;6065;48.138;16.402;2023-02-28T14:11:04;6.20;95.90
12013;DHT22;6065;48.138;16.402;2023-02-28T14:13:39;6.20;95.90
12013;DHT22;6065;48.138;16.402;2023-02-28T14:16:11;6.10;95.80
12013;DHT22;6065;48.138;16.402;2023-02-28T14:18:40;6.10;96.00
12013;DHT22;6065;48.138;16.402;2023-02-28T14:21:12;6.10;95.90
12013;DHT22;6065;48.138;16.402;2023-02-28T14:23:47;6.00;95.80
12013;DHT22;6065;48.138;16.402;2023-02-28T14:26:25;6.00;95.60
12013;DHT22;6065;48.138;16.402;2023-02-28T14:28:59;6.10;95.60
12013;DHT22;6065;48.138;16.402;2023-02-28T14:31:37;6.00;95.50
12013;DHT22;6065;48.138;16.402;2023-02-28T14:34:17;6.10;95.80
12013;DHT22;6065;48.138;16.402;2023-02-28T14:36:48;6.10;95.90
12013;DHT22;6065;48.138;16.402;2023-02-28T14:39:17;6.10;95.70
12013;DHT22;6065;48.138;16.402;2023-02-28T14:41:45;6.10;95.50
12013;DHT22;6065;48.138;16.402;2023-02-28T14:44:16;6.10;95.70
12013;DHT22;6065;48.138;16.402;2023-02-28T14:46:45;6.00;95.60
12013;DHT22;6065;48.138;16.402;2023-02-28T14:49:13;6.00;95.70
12013;DHT22;6065;48.138;16.402;2023-02-28T14:51:41;6.00;95.90
12013;DHT22;6065;48.138;16.402;2023-02-28T14:54:12;6.00;96.00
12013;DHT22;6065;48.138;16.402;2023-02-28T14:56:40;6.10;96.00
12013;DHT22;6065;48.138;16.402;2023-02-28T14:59:20;6.00;95.80
12013;DHT22;6065;48.138;16.402;2023-02-28T15:01:50;6.00;95.80
12013;DHT22;6065;48.138;16.402;2023-02-28T15:04:26;6.10;95.90
12013;DHT22;6065;48.138;16.402;2023-02-28T15:07:08;6.10;96.00
12013;DHT22;6065;48.138;16.402;2023-02-28T15:09:35;6.00;96.00
12013;DHT22;6065;48.138;16.402;2023-02-28T15:12:02;6.00;96.30
12013;DHT22;6065;48.138;16.402;2023-02-28T15:14:28;6.00;96.60
12013;DHT22;6065;48.138;16.402;2023-02-28T15:16:57;6.00;96.70
12013;DHT22;6065;48.138;16.402;2023-02-28T15:19:26;6.00;96.80
12013;DHT22;6065;48.138;16.402;2023-02-28T15:21:55;5.90;96.80
12013;DHT22;6065;48.138;16.402;2023-02-28T15:24:24;5.90;96.50
12013;DHT22;6065;48.138;16.402;2023-02-28T15:26:55;5.90;96.60
12013;DHT22;6065;48.138;16.402;2023-02-28T15:29:24;5.90;96.60
12013;DHT22;6065;48.138;16.402;2023-02-28T15:31:52;5.90;96.60
12013;DHT22;6065;48.138;16.402;2023-02-28T15:34:26;5.90;96.60
12013;DHT22;6065;48.138;16.402;2023-02-28T15:36:54;5.90;96.60
12013;DHT22;6065;48.138;16.402;2023-02-28T15:39:21;5.80;96.50
12013;DHT22;6065;48.138;16.402;2023-02-28T15:41:48;5.80;96.60
12013;DHT22;6065;48.138;16.402;2023-02-28T15:44:16;5.80;96.70
12013;DHT22;6065;48.138;16.402;2023-02-28T15:46:44;5.90;96.60
12013;DHT22;6065;48.138;16.402;2023-02-28T15:49:17;5.80;96.40
12013;DHT22;6065;48.138;16.402;2023-02-28T15:51:46;5.80;96.60
12013;DHT22;6065;48.138;16.402;2023-02-28T15:54:16;5.80;96.60
12013;DHT22;6065;48.138;16.402;2023-02-28T15:56:45;5.80;96.60
12013;DHT22;6065;48.138;16.402;2023-02-28T15:59:14;5.70;96.60
12013;DHT22;6065;48.138;16.402;2023-02-28T16:01:41;5.70;96.70
12013;DHT22;6065;48.138;16.402;2023-02-28T16:04:12;5.70;96.80
12013;DHT22;6065;48.138;16.402;2023-02-28T16:06:40;5.70;96.90
12013;DHT22;6065;48.138;16.402;2023-02-28T16:09:10;5.70;96.90
12013;DHT22;6065;48.138;16.402;2023-02-28T16:11:39;5.70;96.90
12013;DHT22;6065;48.138;16.402;2023-02-28T16:14:09;5.60;96.90
12013;DHT22;6065;48.138;16.402;2023-02-28T16:16:41;5.60;96.90
12013;DHT22;6065;48.138;16.402;2023-02-28T16:19:08;5.60;97.00
12013;DHT22;6065;48.138;16.402;2023-02-28T16:21:34;5.60;96.90